SCOT35 YBOK-YBOK
Flight info
| Callsign | SCOT35 |
|---|---|
| Flight time | 0h 2m |
| Altitude | 6500 |
| Route | DCT OK OK DCT |
| Aircraft | H135/L-SDFGRY/LB1 |
Departure
| Time | 2026-04-16 09:49 |
|---|---|
| Airport | Oakey Army Aviation Centre (YBOK) |
Arrival
| Time | 2026-04-16 09:51 |
|---|---|
| Airport | Oakey Army Aviation Centre (YBOK) |
| Time | Latitude | Longitude | Altitude | Speed | Heading |
|---|---|---|---|---|---|
| 2026-04-16 09:28 | -27.41332 | 151.73479 | 1344 ft | 0 kts | 185° |
| 2026-04-16 09:46 | -27.41334 | 151.73478 | 1347 ft | 2 kts | 184° |
| 2026-04-16 09:46 | -27.41345 | 151.73477 | 1350 ft | 3 kts | 208° |
| 2026-04-16 09:47 | -27.41336 | 151.73441 | 1348 ft | 6 kts | 358° |
| 2026-04-16 09:47 | -27.41293 | 151.73446 | 1352 ft | 9 kts | 13° |
| 2026-04-16 09:47 | -27.41203 | 151.73464 | 1352 ft | 14 kts | 14° |
| 2026-04-16 09:47 | -27.41088 | 151.73492 | 1364 ft | 21 kts | 339° |
| 2026-04-16 09:48 | -27.41056 | 151.73441 | 1349 ft | 1 kts | 287° |
| 2026-04-16 09:48 | -27.41059 | 151.73448 | 1392 ft | 3 kts | 285° |
| 2026-04-16 09:48 | -27.41015 | 151.73195 | 1466 ft | 65 kts | 283° |
| 2026-04-16 09:48 | -27.40917 | 151.72583 | 1555 ft | 87 kts | 282° |
| 2026-04-16 09:49 | -27.40800 | 151.71913 | 1741 ft | 87 kts | 283° |
| 2026-04-16 09:49 | -27.40934 | 151.71337 | 2046 ft | 77 kts | 207° |
| 2026-04-16 09:49 | -27.41481 | 151.71457 | 2107 ft | 94 kts | 132° |
| 2026-04-16 09:49 | -27.41814 | 151.72143 | 2095 ft | 107 kts | 106° |
| 2026-04-16 09:50 | -27.41979 | 151.72978 | 2108 ft | 110 kts | 102° |
| 2026-04-16 09:50 | -27.42122 | 151.73843 | 2070 ft | 116 kts | 100° |
| 2026-04-16 09:50 | -27.42161 | 151.74743 | 2092 ft | 111 kts | 63° |
| 2026-04-16 09:50 | -27.41534 | 151.75035 | 2103 ft | 110 kts | 335° |
| 2026-04-16 09:51 | -27.41165 | 151.74300 | 1694 ft | 121 kts | 277° |
| 2026-04-16 09:51 | -27.41076 | 151.73588 | 1416 ft | 59 kts | 284° |
| 2026-04-16 09:51 | -27.41044 | 151.73367 | 1348 ft | 2 kts | 291° |
| 2026-04-16 09:51 | -27.41035 | 151.73309 | 1411 ft | 33 kts | 286° |
| 2026-04-16 09:52 | -27.40959 | 151.72840 | 1531 ft | 76 kts | 284° |
| 2026-04-16 09:52 | -27.40854 | 151.72239 | 1757 ft | 76 kts | 283° |
| 2026-04-16 09:52 | -27.40762 | 151.71646 | 1996 ft | 78 kts | 280° |
| 2026-04-16 09:52 | -27.40905 | 151.71062 | 2146 ft | 87 kts | 223° |
| 2026-04-16 09:53 | -27.41512 | 151.70917 | 2178 ft | 100 kts | 151° |
| 2026-04-16 09:53 | -27.41864 | 151.71603 | 2108 ft | 112 kts | 99° |
| 2026-04-16 09:53 | -27.41976 | 151.72491 | 2033 ft | 118 kts | 95° |
| 2026-04-16 09:53 | -27.42091 | 151.73398 | 2036 ft | 115 kts | 97° |
| 2026-04-16 09:54 | -27.42188 | 151.74271 | 2097 ft | 110 kts | 95° |
| 2026-04-16 09:54 | -27.42157 | 151.75109 | 2189 ft | 105 kts | 60° |
| 2026-04-16 09:54 | -27.41572 | 151.75441 | 2267 ft | 100 kts | 333° |
| 2026-04-16 09:54 | -27.41244 | 151.74731 | 1930 ft | 118 kts | 279° |
| 2026-04-16 09:55 | -27.41140 | 151.74004 | 1653 ft | 64 kts | 277° |
| 2026-04-16 09:55 | -27.41080 | 151.73612 | 1426 ft | 38 kts | 278° |
| 2026-04-16 09:55 | -27.41067 | 151.73500 | 1359 ft | 4 kts | 283° |
| 2026-04-16 09:55 | -27.41059 | 151.73454 | 1394 ft | 25 kts | 285° |
| 2026-04-16 09:56 | -27.40985 | 151.73006 | 1430 ft | 83 kts | 282° |
| 2026-04-16 09:56 | -27.40876 | 151.72295 | 1581 ft | 88 kts | 282° |
| 2026-04-16 09:56 | -27.40777 | 151.71676 | 1912 ft | 77 kts | 282° |
| 2026-04-16 09:56 | -27.40875 | 151.71110 | 2141 ft | 79 kts | 219° |
| 2026-04-16 09:57 | -27.41426 | 151.71000 | 2227 ft | 89 kts | 148° |
| 2026-04-16 09:57 | -27.41777 | 151.71590 | 2226 ft | 100 kts | 97° |
| 2026-04-16 09:57 | -27.41886 | 151.72401 | 2185 ft | 111 kts | 99° |
| 2026-04-16 09:57 | -27.42023 | 151.73277 | 2195 ft | 112 kts | 100° |
| 2026-04-16 09:58 | -27.42087 | 151.74128 | 2303 ft | 102 kts | 63° |
| 2026-04-16 09:58 | -27.41535 | 151.74452 | 2129 ft | 96 kts | 345° |
| 2026-04-16 09:58 | -27.41140 | 151.73969 | 1673 ft | 78 kts | 286° |
| 2026-04-16 09:58 | -27.41073 | 151.73541 | 1442 ft | 31 kts | 283° |
| 2026-04-16 09:59 | -27.41048 | 151.73408 | 1362 ft | 4 kts | 278° |
| 2026-04-16 09:59 | -27.41047 | 151.73389 | 1364 ft | 16 kts | 281° |
| 2026-04-16 09:59 | -27.40983 | 151.72978 | 1379 ft | 80 kts | 282° |
| 2026-04-16 09:59 | -27.40882 | 151.72302 | 1548 ft | 80 kts | 282° |
| 2026-04-16 10:00 | -27.40859 | 151.71719 | 1798 ft | 80 kts | 232° |
| 2026-04-16 10:00 | -27.41426 | 151.71547 | 1830 ft | 97 kts | 151° |
| 2026-04-16 10:00 | -27.41787 | 151.72212 | 1754 ft | 111 kts | 100° |
| 2026-04-16 10:01 | -27.42080 | 151.73968 | 1693 ft | 113 kts | 99° |
| 2026-04-16 10:01 | -27.41911 | 151.74733 | 1868 ft | 99 kts | 38° |
| 2026-04-16 10:01 | -27.41296 | 151.74677 | 1812 ft | 109 kts | 304° |
| 2026-04-16 10:01 | -27.41117 | 151.73848 | 1500 ft | 90 kts | 286° |
| 2026-04-16 10:02 | -27.41051 | 151.73435 | 1389 ft | 24 kts | 281° |
| 2026-04-16 10:02 | -27.41042 | 151.73372 | 1345 ft | 2 kts | 281° |
| 2026-04-16 10:02 | -27.41043 | 151.73370 | 1344 ft | 0 kts | 281° |
| 2026-04-16 10:03 | -27.41043 | 151.73369 | 1346 ft | 1 kts | 281° |
| 2026-04-16 10:03 | -27.41034 | 151.73309 | 1384 ft | 24 kts | 281° |
| 2026-04-16 10:04 | -27.40968 | 151.72885 | 1484 ft | 75 kts | 282° |
| 2026-04-16 10:04 | -27.40869 | 151.72263 | 1628 ft | 89 kts | 282° |
| 2026-04-16 10:04 | -27.40761 | 151.71577 | 1836 ft | 87 kts | 282° |
| 2026-04-16 10:04 | -27.40675 | 151.70905 | 2003 ft | 92 kts | 265° |
| 2026-04-16 10:05 | -27.41046 | 151.70320 | 2091 ft | 99 kts | 198° |
| 2026-04-16 10:05 | -27.41639 | 151.70553 | 2120 ft | 105 kts | 114° |
| 2026-04-16 10:05 | -27.41803 | 151.71110 | 2022 ft | 117 kts | 102° |
| 2026-04-16 10:05 | -27.41948 | 151.72005 | 2030 ft | 115 kts | 99° |
| 2026-04-16 10:06 | -27.42084 | 151.72894 | 2027 ft | 115 kts | 98° |
| 2026-04-16 10:06 | -27.42207 | 151.73781 | 2070 ft | 112 kts | 97° |
| 2026-04-16 10:06 | -27.42323 | 151.74954 | 2047 ft | 115 kts | 94° |
| 2026-04-16 10:06 | -27.42281 | 151.75547 | 2093 ft | 111 kts | 61° |
| 2026-04-16 10:07 | -27.41695 | 151.75944 | 2142 ft | 106 kts | 342° |
| 2026-04-16 10:07 | -27.41303 | 151.75240 | 1943 ft | 123 kts | 279° |
| 2026-04-16 10:07 | -27.41183 | 151.74343 | 1695 ft | 91 kts | 281° |
| 2026-04-16 10:07 | -27.41108 | 151.73822 | 1539 ft | 49 kts | 281° |
| 2026-04-16 10:08 | -27.41070 | 151.73552 | 1411 ft | 23 kts | 279° |
| 2026-04-16 10:08 | -27.41046 | 151.73511 | 1349 ft | 15 kts | 281° |
| 2026-04-16 10:08 | -27.40939 | 151.73487 | 1369 ft | 26 kts | 284° |
| 2026-04-16 10:08 | -27.40843 | 151.73406 | 1352 ft | 6 kts | 281° |
| 2026-04-16 10:09 | -27.40839 | 151.73409 | 1344 ft | 0 kts | 283° |
| 2026-04-16 10:12 | -27.40833 | 151.73371 | 1370 ft | 23 kts | 280° |
| 2026-04-16 10:12 | -27.40769 | 151.72933 | 1516 ft | 71 kts | 279° |
| 2026-04-16 10:12 | -27.40522 | 151.72460 | 1673 ft | 88 kts | 358° |
| 2026-04-16 10:12 | -27.40230 | 151.72989 | 1652 ft | 105 kts | 101° |
| 2026-04-16 10:13 | -27.40367 | 151.73823 | 1671 ft | 111 kts | 98° |
| 2026-04-16 10:13 | -27.40759 | 151.74384 | 1711 ft | 106 kts | 208° |
| 2026-04-16 10:13 | -27.40871 | 151.73654 | 1449 ft | 74 kts | 284° |
| 2026-04-16 10:13 | -27.40828 | 151.73353 | 1369 ft | 13 kts | 285° |
| 2026-04-16 10:14 | -27.40826 | 151.73339 | 1349 ft | 0 kts | 285° |
| 2026-04-16 10:16 | -27.40822 | 151.73325 | 1406 ft | 2 kts | 280° |
| 2026-04-16 10:16 | -27.40796 | 151.73149 | 1466 ft | 57 kts | 281° |
| 2026-04-16 10:16 | -27.40717 | 151.72596 | 1609 ft | 82 kts | 279° |
| 2026-04-16 10:17 | -27.40616 | 151.71938 | 1828 ft | 83 kts | 279° |
| 2026-04-16 10:17 | -27.40415 | 151.71368 | 2068 ft | 85 kts | 336° |
| 2026-04-16 10:17 | -27.39915 | 151.71630 | 2109 ft | 99 kts | 76° |
| 2026-04-16 10:17 | -27.39984 | 151.72455 | 2091 ft | 109 kts | 97° |
| 2026-04-16 10:18 | -27.40120 | 151.73293 | 2152 ft | 109 kts | 98° |
| 2026-04-16 10:18 | -27.40247 | 151.74149 | 2141 ft | 114 kts | 97° |
| 2026-04-16 10:18 | -27.40468 | 151.74993 | 2170 ft | 112 kts | 143° |
| 2026-04-16 10:18 | -27.41025 | 151.74694 | 1912 ft | 115 kts | 282° |
| 2026-04-16 10:19 | -27.40904 | 151.73857 | 1556 ft | 92 kts | 282° |
| 2026-04-16 10:19 | -27.40848 | 151.73464 | 1420 ft | 14 kts | 283° |
| 2026-04-16 10:19 | -27.40843 | 151.73439 | 1350 ft | 0 kts | 284° |
| 2026-04-16 10:19 | -27.40832 | 151.73375 | 1424 ft | 30 kts | 283° |
| 2026-04-16 10:20 | -27.40755 | 151.72878 | 1559 ft | 79 kts | 281° |
| 2026-04-16 10:20 | -27.40661 | 151.72271 | 1822 ft | 78 kts | 281° |
| 2026-04-16 10:20 | -27.40378 | 151.71769 | 1991 ft | 89 kts | 351° |
| 2026-04-16 10:20 | -27.39917 | 151.72165 | 2024 ft | 101 kts | 88° |
| 2026-04-16 10:21 | -27.40043 | 151.72979 | 2084 ft | 104 kts | 100° |
| 2026-04-16 10:21 | -27.40179 | 151.73784 | 2168 ft | 106 kts | 98° |
| 2026-04-16 10:21 | -27.40392 | 151.74547 | 2189 ft | 100 kts | 153° |
| 2026-04-16 10:21 | -27.40909 | 151.74237 | 1804 ft | 86 kts | 256° |
| 2026-04-16 10:22 | -27.40878 | 151.73686 | 1488 ft | 58 kts | 283° |
| 2026-04-16 10:22 | -27.40844 | 151.73440 | 1362 ft | 5 kts | 277° |
| 2026-04-16 10:22 | -27.40836 | 151.73436 | 1357 ft | 2 kts | 86° |
| 2026-04-16 10:22 | -27.40842 | 151.73407 | 1409 ft | 24 kts | 285° |
| 2026-04-16 10:23 | -27.40767 | 151.72969 | 1535 ft | 79 kts | 285° |
| 2026-04-16 10:23 | -27.40657 | 151.72325 | 1723 ft | 85 kts | 277° |
| 2026-04-16 10:23 | -27.40729 | 151.71712 | 1981 ft | 82 kts | 226° |
| 2026-04-16 10:23 | -27.41332 | 151.71500 | 2004 ft | 102 kts | 169° |
| 2026-04-16 10:24 | -27.41790 | 151.72067 | 1966 ft | 113 kts | 102° |
| 2026-04-16 10:24 | -27.41938 | 151.72953 | 1972 ft | 113 kts | 98° |
| 2026-04-16 10:24 | -27.42056 | 151.73745 | 2209 ft | 97 kts | 92° |
| 2026-04-16 10:24 | -27.41689 | 151.74204 | 2069 ft | 81 kts | 4° |
| 2026-04-16 10:25 | -27.41202 | 151.74030 | 1702 ft | 74 kts | 310° |
| 2026-04-16 10:25 | -27.41090 | 151.73628 | 1481 ft | 38 kts | 287° |
| 2026-04-16 10:25 | -27.41068 | 151.73520 | 1359 ft | 2 kts | 285° |
| 2026-04-16 10:25 | -27.41060 | 151.73481 | 1383 ft | 19 kts | 276° |
| 2026-04-16 10:26 | -27.40995 | 151.73044 | 1422 ft | 83 kts | 281° |
| 2026-04-16 10:26 | -27.40885 | 151.72335 | 1550 ft | 91 kts | 282° |
| 2026-04-16 10:26 | -27.41009 | 151.71717 | 1761 ft | 92 kts | 195° |
| 2026-04-16 10:26 | -27.41480 | 151.72120 | 1770 ft | 105 kts | 101° |
| 2026-04-16 10:27 | -27.41628 | 151.72959 | 1783 ft | 110 kts | 99° |
| 2026-04-16 10:27 | -27.41756 | 151.73796 | 1823 ft | 110 kts | 97° |
| 2026-04-16 10:27 | -27.41858 | 151.74655 | 1881 ft | 110 kts | 72° |
| 2026-04-16 10:27 | -27.41304 | 151.74798 | 1806 ft | 108 kts | 304° |
| 2026-04-16 10:28 | -27.41137 | 151.73982 | 1559 ft | 91 kts | 282° |
| 2026-04-16 10:28 | -27.41065 | 151.73563 | 1384 ft | 22 kts | 287° |
| 2026-04-16 10:28 | -27.41088 | 151.73505 | 1357 ft | 15 kts | 226° |
| 2026-04-16 10:28 | -27.41184 | 151.73468 | 1356 ft | 14 kts | 195° |
| 2026-04-16 10:29 | -27.41261 | 151.73452 | 1357 ft | 10 kts | 187° |
| 2026-04-16 10:29 | -27.41337 | 151.73444 | 1354 ft | 11 kts | 152° |
| 2026-04-16 10:29 | -27.41356 | 151.73493 | 1350 ft | 4 kts | 74° |
| 2026-04-16 10:29 | -27.41337 | 151.73513 | 1349 ft | 0 kts | 14° |
| 2026-04-16 10:30 | -27.41335 | 151.73514 | 1341 ft | 0 kts | 12° |